sensor_id;sensor_type;location;lat;lon;timestamp;pressure;altitude;pressure_sealevel;temperature;humidity
39301;BME280;25019;42.626;23.380;2023-08-17T00:02:24;94550.25;;;19.89;100.00
39301;BME280;25019;42.626;23.380;2023-08-17T00:04:50;94552.63;;;19.90;100.00
39301;BME280;25019;42.626;23.380;2023-08-17T00:07:16;94571.50;;;19.90;100.00
39301;BME280;25019;42.626;23.380;2023-08-17T00:09:42;94547.56;;;19.75;100.00
39301;BME280;25019;42.626;23.380;2023-08-17T00:12:08;94564.59;;;19.84;100.00
39301;BME280;25019;42.626;23.380;2023-08-17T00:14:34;94567.09;;;19.81;100.00
39301;BME280;25019;42.626;23.380;2023-08-17T00:16:59;94570.59;;;19.67;100.00
39301;BME280;25019;42.626;23.380;2023-08-17T00:19:25;94569.63;;;19.63;100.00
39301;BME280;25019;42.626;23.380;2023-08-17T00:21:51;94561.84;;;19.61;100.00
39301;BME280;25019;42.626;23.380;2023-08-17T00:24:18;94557.38;;;19.57;99.58
39301;BME280;25019;42.626;23.380;2023-08-17T00:26:43;94553.50;;;19.49;99.70
39301;BME280;25019;42.626;23.380;2023-08-17T00:29:09;94562.06;;;19.51;99.33
39301;BME280;25019;42.626;23.380;2023-08-17T00:31:35;94557.78;;;19.50;98.63
39301;BME280;25019;42.626;23.380;2023-08-17T00:34:00;94561.75;;;19.53;98.45
39301;BME280;25019;42.626;23.380;2023-08-17T00:36:26;94564.75;;;19.51;97.93
39301;BME280;25019;42.626;23.380;2023-08-17T00:38:52;94498.94;;;19.01;96.88
39301;BME280;25019;42.626;23.380;2023-08-17T00:41:17;94560.34;;;19.41;95.93
39301;BME280;25019;42.626;23.380;2023-08-17T00:43:43;94559.84;;;19.39;95.06
39301;BME280;25019;42.626;23.380;2023-08-17T00:46:09;94546.91;;;19.27;94.21
39301;BME280;25019;42.626;23.380;2023-08-17T00:48:35;94552.50;;;19.17;94.13
39301;BME280;25019;42.626;23.380;2023-08-17T00:51:01;94566.75;;;19.17;93.78
39301;BME280;25019;42.626;23.380;2023-08-17T00:53:29;94560.16;;;19.10;93.69
39301;BME280;25019;42.626;23.380;2023-08-17T00:55:59;94547.69;;;19.00;93.89
39301;BME280;25019;42.626;23.380;2023-08-17T00:58:26;94488.34;;;18.63;93.33
39301;BME280;25019;42.626;23.380;2023-08-17T01:00:52;94549.41;;;19.10;92.49
39301;BME280;25019;42.626;23.380;2023-08-17T01:03:18;94546.00;;;19.04;92.15
39301;BME280;25019;42.626;23.380;2023-08-17T01:05:46;94507.19;;;18.77;92.13
39301;BME280;25019;42.626;23.380;2023-08-17T01:08:12;94555.69;;;19.05;92.20
39301;BME280;25019;42.626;23.380;2023-08-17T01:13:18;94554.38;;;19.02;90.84
39301;BME280;25019;42.626;23.380;2023-08-17T01:15:55;94550.16;;;18.96;90.95
39301;BME280;25019;42.626;23.380;2023-08-17T01:18:29;94550.03;;;18.87;90.77
39301;BME280;25019;42.626;23.380;2023-08-17T01:20:57;94553.94;;;18.81;91.93
39301;BME280;25019;42.626;23.380;2023-08-17T01:23:23;94553.53;;;18.74;91.94
39301;BME280;25019;42.626;23.380;2023-08-17T01:25:49;94547.63;;;18.72;92.00
39301;BME280;25019;42.626;23.380;2023-08-17T01:28:14;94540.66;;;18.71;92.37
39301;BME280;25019;42.626;23.380;2023-08-17T01:30:59;94545.44;;;18.74;91.47
39301;BME280;25019;42.626;23.380;2023-08-17T01:33:34;94532.88;;;18.69;91.21
39301;BME280;25019;42.626;23.380;2023-08-17T01:36:24;94546.81;;;18.71;90.53
39301;BME280;25019;42.626;23.380;2023-08-17T01:38:54;94535.09;;;18.67;90.11
39301;BME280;25019;42.626;23.380;2023-08-17T01:41:23;94450.78;;;18.11;89.69
39301;BME280;25019;42.626;23.380;2023-08-17T01:43:50;94467.25;;;18.23;88.93
39301;BME280;25019;42.626;23.380;2023-08-17T01:46:17;94542.84;;;18.69;88.67
39301;BME280;25019;42.626;23.380;2023-08-17T01:48:44;94542.84;;;18.69;88.58
39301;BME280;25019;42.626;23.380;2023-08-17T01:51:11;94527.38;;;18.61;88.73
39301;BME280;25019;42.626;23.380;2023-08-17T01:53:37;94530.66;;;18.57;87.38
39301;BME280;25019;42.626;23.380;2023-08-17T01:56:03;94553.09;;;18.67;87.57
39301;BME280;25019;42.626;23.380;2023-08-17T01:58:29;94538.88;;;18.66;87.24
39301;BME280;25019;42.626;23.380;2023-08-17T02:00:54;94542.66;;;18.65;86.81
39301;BME280;25019;42.626;23.380;2023-08-17T02:03:20;94541.84;;;18.65;86.50
39301;BME280;25019;42.626;23.380;2023-08-17T02:05:47;94534.66;;;18.60;86.49
39301;BME280;25019;42.626;23.380;2023-08-17T02:08:14;94537.34;;;18.60;86.69
39301;BME280;25019;42.626;23.380;2023-08-17T02:10:40;94539.63;;;18.53;86.87
39301;BME280;25019;42.626;23.380;2023-08-17T02:13:05;94531.34;;;18.49;87.01
39301;BME280;25019;42.626;23.380;2023-08-17T02:15:31;94539.13;;;18.51;87.66
39301;BME280;25019;42.626;23.380;2023-08-17T02:18:00;94540.19;;;18.50;87.60
39301;BME280;25019;42.626;23.380;2023-08-17T02:20:28;94535.13;;;18.48;87.80
39301;BME280;25019;42.626;23.380;2023-08-17T02:22:53;94535.72;;;18.45;88.15
39301;BME280;25019;42.626;23.380;2023-08-17T02:25:19;94516.78;;;18.36;87.84
39301;BME280;25019;42.626;23.380;2023-08-17T02:27:45;94526.72;;;18.36;87.97
39301;BME280;25019;42.626;23.380;2023-08-17T02:30:11;94526.94;;;18.39;87.99
39301;BME280;25019;42.626;23.380;2023-08-17T02:32:36;94523.53;;;18.34;87.84
39301;BME280;25019;42.626;23.380;2023-08-17T02:35:02;94484.50;;;18.03;87.52
39301;BME280;25019;42.626;23.380;2023-08-17T02:37:28;94530.22;;;18.36;87.55
39301;BME280;25019;42.626;23.380;2023-08-17T02:39:53;94523.03;;;18.32;87.13
39301;BME280;25019;42.626;23.380;2023-08-17T02:42:19;94529.72;;;18.34;86.91
39301;BME280;25019;42.626;23.380;2023-08-17T02:44:44;94522.25;;;18.31;86.92
39301;BME280;25019;42.626;23.380;2023-08-17T02:47:10;94519.25;;;18.33;86.45
39301;BME280;25019;42.626;23.380;2023-08-17T02:49:36;94519.75;;;18.35;86.16
39301;BME280;25019;42.626;23.380;2023-08-17T02:52:02;94466.06;;;17.96;85.56
39301;BME280;25019;42.626;23.380;2023-08-17T02:54:28;94515.25;;;18.30;85.71
39301;BME280;25019;42.626;23.380;2023-08-17T02:56:54;94513.66;;;18.29;85.69
39301;BME280;25019;42.626;23.380;2023-08-17T02:59:20;94466.91;;;17.92;85.81
39301;BME280;25019;42.626;23.380;2023-08-17T03:01:45;94527.69;;;18.26;86.19
39301;BME280;25019;42.626;23.380;2023-08-17T03:04:12;94521.03;;;18.23;86.10
39301;BME280;25019;42.626;23.380;2023-08-17T03:06:38;94520.00;;;18.19;86.38
39301;BME280;25019;42.626;23.380;2023-08-17T03:09:04;94522.19;;;18.17;86.41
39301;BME280;25019;42.626;23.380;2023-08-17T03:11:29;94516.59;;;18.14;87.12
39301;BME280;25019;42.626;23.380;2023-08-17T03:13:55;94513.78;;;18.05;86.73
39301;BME280;25019;42.626;23.380;2023-08-17T03:16:29;94523.72;;;18.04;87.52
39301;BME280;25019;42.626;23.380;2023-08-17T03:18:58;94524.31;;;18.01;87.59
39301;BME280;25019;42.626;23.380;2023-08-17T03:21:24;94514.94;;;17.99;87.80
39301;BME280;25019;42.626;23.380;2023-08-17T03:23:52;94522.47;;;17.96;87.87
39301;BME280;25019;42.626;23.380;2023-08-17T03:26:17;94508.88;;;17.88;87.58
39301;BME280;25019;42.626;23.380;2023-08-17T03:28:44;94528.19;;;17.90;88.40
39301;BME280;25019;42.626;23.380;2023-08-17T03:31:10;94525.88;;;17.83;88.13
39301;BME280;25019;42.626;23.380;2023-08-17T03:33:36;94456.84;;;17.26;89.22
39301;BME280;25019;42.626;23.380;2023-08-17T03:36:03;94479.56;;;17.34;89.53
39301;BME280;25019;42.626;23.380;2023-08-17T03:38:29;94520.50;;;17.64;89.56
39301;BME280;25019;42.626;23.380;2023-08-17T03:40:55;94530.47;;;17.63;89.02
39301;BME280;25019;42.626;23.380;2023-08-17T03:43:22;94480.94;;;17.31;89.07
39301;BME280;25019;42.626;23.380;2023-08-17T03:45:48;94534.75;;;17.64;88.47
39301;BME280;25019;42.626;23.380;2023-08-17T03:48:13;94526.19;;;17.62;87.91
39301;BME280;25019;42.626;23.380;2023-08-17T03:50:39;94536.19;;;17.76;87.37
39301;BME280;25019;42.626;23.380;2023-08-17T03:53:05;94439.22;;;17.20;86.61
39301;BME280;25019;42.626;23.380;2023-08-17T03:55:31;94527.19;;;17.86;85.84
39301;BME280;25019;42.626;23.380;2023-08-17T03:57:56;94538.59;;;17.96;85.76
39301;BME280;25019;42.626;23.380;2023-08-17T04:00:22;94532.56;;;18.05;85.29
39301;BME280;25019;42.626;23.380;2023-08-17T04:02:53;94540.06;;;18.08;84.47
39301;BME280;25019;42.626;23.380;2023-08-17T04:05:19;94532.94;;;18.17;83.82
39301;BME280;25019;42.626;23.380;2023-08-17T04:07:45;94541.25;;;18.35;83.15
39301;BME280;25019;42.626;23.380;2023-08-17T04:10:13;94542.38;;;18.48;82.03
39301;BME280;25019;42.626;23.380;2023-08-17T04:12:38;94549.63;;;18.66;80.84
39301;BME280;25019;42.626;23.380;2023-08-17T04:15:04;94517.16;;;18.77;79.28
39301;BME280;25019;42.626;23.380;2023-08-17T04:17:30;94538.63;;;19.24;77.92
39301;BME280;25019;42.626;23.380;2023-08-17T04:19:56;94544.47;;;19.68;75.87
39301;BME280;25019;42.626;23.380;2023-08-17T04:22:22;94537.19;;;20.19;73.70
39301;BME280;25019;42.626;23.380;2023-08-17T04:24:47;94533.09;;;20.76;71.83
39301;BME280;25019;42.626;23.380;2023-08-17T04:27:13;94538.25;;;21.27;68.02
39301;BME280;25019;42.626;23.380;2023-08-17T04:29:40;94532.66;;;21.90;66.41
39301;BME280;25019;42.626;23.380;2023-08-17T04:32:06;94528.38;;;22.41;63.57
39301;BME280;25019;42.626;23.380;2023-08-17T04:34:32;94529.06;;;22.95;61.11
39301;BME280;25019;42.626;23.380;2023-08-17T04:36:58;94522.72;;;23.38;59.51
39301;BME280;25019;42.626;23.380;2023-08-17T04:39:24;94539.31;;;23.88;57.52
39301;BME280;25019;42.626;23.380;2023-08-17T04:41:50;94527.16;;;24.36;56.04
39301;BME280;25019;42.626;23.380;2023-08-17T04:44:22;94527.41;;;24.77;54.48
39301;BME280;25019;42.626;23.380;2023-08-17T04:46:48;94504.84;;;25.10;53.27
39301;BME280;25019;42.626;23.380;2023-08-17T04:49:13;94522.28;;;25.59;51.91
39301;BME280;25019;42.626;23.380;2023-08-17T04:51:39;94519.16;;;25.98;51.21
39301;BME280;25019;42.626;23.380;2023-08-17T04:54:05;94503.91;;;26.22;50.02
39301;BME280;25019;42.626;23.380;2023-08-17T04:56:30;94513.53;;;26.60;48.34
39301;BME280;25019;42.626;23.380;2023-08-17T04:58:56;94514.81;;;26.95;47.92
39301;BME280;25019;42.626;23.380;2023-08-17T05:01:22;94521.09;;;27.27;46.96
39301;BME280;25019;42.626;23.380;2023-08-17T05:03:47;94525.31;;;27.57;46.13
39301;BME280;25019;42.626;23.380;2023-08-17T05:06:13;94513.59;;;27.72;45.79
39301;BME280;25019;42.626;23.380;2023-08-17T05:08:39;94519.78;;;27.89;45.07
39301;BME280;25019;42.626;23.380;2023-08-17T05:11:04;94523.34;;;28.09;44.83
39301;BME280;25019;42.626;23.380;2023-08-17T05:13:30;94438.25;;;27.67;44.77
39301;BME280;25019;42.626;23.380;2023-08-17T05:15:59;94514.81;;;28.50;43.94
39301;BME280;25019;42.626;23.380;2023-08-17T05:18:25;94514.06;;;28.73;43.73
39301;BME280;25019;42.626;23.380;2023-08-17T05:20:51;94505.53;;;28.97;43.20
39301;BME280;25019;42.626;23.380;2023-08-17T05:23:17;94515.25;;;29.18;41.93
39301;BME280;25019;42.626;23.380;2023-08-17T05:25:46;94508.38;;;29.51;41.75
39301;BME280;25019;42.626;23.380;2023-08-17T05:28:13;94511.59;;;29.84;40.74
39301;BME280;25019;42.626;23.380;2023-08-17T05:30:38;94513.13;;;30.08;40.60
39301;BME280;25019;42.626;23.380;2023-08-17T05:33:04;94510.81;;;30.44;39.87
39301;BME280;25019;42.626;23.380;2023-08-17T05:35:30;94510.25;;;30.62;39.93
39301;BME280;25019;42.626;23.380;2023-08-17T05:37:57;94517.38;;;30.67;39.13
39301;BME280;25019;42.626;23.380;2023-08-17T05:40:22;94504.13;;;30.76;39.47
39301;BME280;25019;42.626;23.380;2023-08-17T05:42:48;94513.34;;;30.94;39.18
39301;BME280;25019;42.626;23.380;2023-08-17T05:45:13;94513.34;;;30.94;39.50
39301;BME280;25019;42.626;23.380;2023-08-17T05:47:39;94517.41;;;30.70;39.41
39301;BME280;25019;42.626;23.380;2023-08-17T05:50:05;94509.84;;;30.60;39.64
39301;BME280;25019;42.626;23.380;2023-08-17T05:52:31;94517.44;;;30.74;39.04
39301;BME280;25019;42.626;23.380;2023-08-17T05:54:57;94511.28;;;30.84;39.42
39301;BME280;25019;42.626;23.380;2023-08-17T05:57:22;94521.38;;;30.76;39.26
39301;BME280;25019;42.626;23.380;2023-08-17T05:59:48;94515.59;;;30.51;39.43
39301;BME280;25019;42.626;23.380;2023-08-17T06:02:13;94521.94;;;30.25;40.20
39301;BME280;25019;42.626;23.380;2023-08-17T06:04:39;94484.56;;;29.79;40.67
39301;BME280;25019;42.626;23.380;2023-08-17T06:07:06;94518.47;;;29.97;41.54
39301;BME280;25019;42.626;23.380;2023-08-17T06:09:31;94522.31;;;29.19;43.08
39301;BME280;25019;42.626;23.380;2023-08-17T06:11:57;94481.41;;;28.17;45.56
39301;BME280;25019;42.626;23.380;2023-08-17T06:14:23;94538.41;;;27.67;48.23
39301;BME280;25019;42.626;23.380;2023-08-17T06:16:48;94515.47;;;27.04;50.46
39301;BME280;25019;42.626;23.380;2023-08-17T06:19:14;94523.34;;;26.49;52.89
39301;BME280;25019;42.626;23.380;2023-08-17T06:21:40;94530.91;;;26.55;53.72
39301;BME280;25019;42.626;23.380;2023-08-17T06:24:06;94521.97;;;25.61;55.33
39301;BME280;25019;42.626;23.380;2023-08-17T06:26:31;94523.88;;;25.72;56.05
39301;BME280;25019;42.626;23.380;2023-08-17T06:28:57;94514.34;;;25.29;56.73
39301;BME280;25019;42.626;23.380;2023-08-17T06:31:22;94528.06;;;25.08;57.32
39301;BME280;25019;42.626;23.380;2023-08-17T06:33:55;94519.06;;;24.82;57.59
39301;BME280;25019;42.626;23.380;2023-08-17T06:36:21;94537.50;;;24.89;58.26
39301;BME280;25019;42.626;23.380;2023-08-17T06:38:47;94544.56;;;24.69;59.78
39301;BME280;25019;42.626;23.380;2023-08-17T06:41:13;94524.59;;;24.52;59.25
39301;BME280;25019;42.626;23.380;2023-08-17T06:43:38;94494.75;;;24.19;60.56
39301;BME280;25019;42.626;23.380;2023-08-17T06:46:04;94529.31;;;24.43;60.80
39301;BME280;25019;42.626;23.380;2023-08-17T06:48:29;94537.25;;;24.48;62.41
39301;BME280;25019;42.626;23.380;2023-08-17T06:50:56;94547.78;;;24.50;63.15
39301;BME280;25019;42.626;23.380;2023-08-17T06:53:22;94544.47;;;24.44;62.96
39301;BME280;25019;42.626;23.380;2023-08-17T06:55:48;94545.28;;;24.45;63.37
39301;BME280;25019;42.626;23.380;2023-08-17T06:58:13;94505.41;;;24.24;63.55
39301;BME280;25019;42.626;23.380;2023-08-17T07:00:39;94537.88;;;24.33;62.97
39301;BME280;25019;42.626;23.380;2023-08-17T07:03:06;94536.56;;;24.39;61.68
39301;BME280;25019;42.626;23.380;2023-08-17T07:05:32;94529.59;;;24.29;61.73
39301;BME280;25019;42.626;23.380;2023-08-17T07:07:58;94542.00;;;24.51;60.30
39301;BME280;25019;42.626;23.380;2023-08-17T07:10:27;94531.50;;;24.50;58.95
39301;BME280;25019;42.626;23.380;2023-08-17T07:12:52;94540.81;;;24.61;58.50
39301;BME280;25019;42.626;23.380;2023-08-17T07:15:18;94537.16;;;24.57;58.31
39301;BME280;25019;42.626;23.380;2023-08-17T07:17:44;94539.56;;;24.59;59.67
39301;BME280;25019;42.626;23.380;2023-08-17T07:20:10;94540.69;;;24.58;58.87
39301;BME280;25019;42.626;23.380;2023-08-17T07:22:36;94539.22;;;24.60;57.80
39301;BME280;25019;42.626;23.380;2023-08-17T07:25:02;94524.03;;;24.59;58.40
39301;BME280;25019;42.626;23.380;2023-08-17T07:27:29;94538.53;;;24.63;58.41
39301;BME280;25019;42.626;23.380;2023-08-17T07:29:54;94529.72;;;24.66;56.29
39301;BME280;25019;42.626;23.380;2023-08-17T07:32:20;94529.34;;;24.77;54.25
39301;BME280;25019;42.626;23.380;2023-08-17T07:34:47;94524.13;;;24.84;54.81
39301;BME280;25019;42.626;23.380;2023-08-17T07:37:12;94530.78;;;24.74;56.35
39301;BME280;25019;42.626;23.380;2023-08-17T07:39:38;94471.63;;;24.34;55.25
39301;BME280;25019;42.626;23.380;2023-08-17T07:42:04;94519.22;;;24.65;56.08
39301;BME280;25019;42.626;23.380;2023-08-17T07:44:30;94453.63;;;24.29;55.49
39301;BME280;25019;42.626;23.380;2023-08-17T07:46:57;94529.50;;;24.93;56.14
39301;BME280;25019;42.626;23.380;2023-08-17T07:49:23;94479.56;;;24.73;56.53
39301;BME280;25019;42.626;23.380;2023-08-17T07:51:49;94530.41;;;25.09;57.09
39301;BME280;25019;42.626;23.380;2023-08-17T07:54:15;94537.78;;;25.21;57.92
39301;BME280;25019;42.626;23.380;2023-08-17T07:56:40;94527.25;;;25.32;56.97
39301;BME280;25019;42.626;23.380;2023-08-17T07:59:06;94531.13;;;25.19;55.67
39301;BME280;25019;42.626;23.380;2023-08-17T08:01:32;94526.81;;;25.18;56.41
39301;BME280;25019;42.626;23.380;2023-08-17T08:03:57;94529.63;;;25.09;56.38
39301;BME280;25019;42.626;23.380;2023-08-17T08:06:23;94530.09;;;25.23;57.63
39301;BME280;25019;42.626;23.380;2023-08-17T08:08:49;94484.13;;;25.06;56.19
39301;BME280;25019;42.626;23.380;2023-08-17T08:11:14;94522.38;;;25.38;56.18
39301;BME280;25019;42.626;23.380;2023-08-17T08:13:40;94509.72;;;25.54;56.23
39301;BME280;25019;42.626;23.380;2023-08-17T08:16:06;94515.25;;;25.70;56.12
39301;BME280;25019;42.626;23.380;2023-08-17T08:18:31;94438.81;;;25.35;55.55
39301;BME280;25019;42.626;23.380;2023-08-17T08:20:57;94501.53;;;25.79;55.17
39301;BME280;25019;42.626;23.380;2023-08-17T08:23:23;94512.97;;;25.85;54.26
39301;BME280;25019;42.626;23.380;2023-08-17T08:25:49;94515.13;;;25.67;53.81
39301;BME280;25019;42.626;23.380;2023-08-17T08:28:14;94509.91;;;25.74;54.95
39301;BME280;25019;42.626;23.380;2023-08-17T08:30:40;94502.06;;;25.85;53.71
39301;BME280;25019;42.626;23.380;2023-08-17T08:33:05;94494.59;;;25.94;53.49
39301;BME280;25019;42.626;23.380;2023-08-17T08:35:31;94502.97;;;26.01;52.86
39301;BME280;25019;42.626;23.380;2023-08-17T08:37:58;94500.09;;;26.10;52.80
39301;BME280;25019;42.626;23.380;2023-08-17T08:40:28;94499.19;;;26.06;52.48
39301;BME280;25019;42.626;23.380;2023-08-17T08:42:55;94507.09;;;26.24;52.70
39301;BME280;25019;42.626;23.380;2023-08-17T08:45:22;94496.56;;;26.22;52.68
39301;BME280;25019;42.626;23.380;2023-08-17T08:47:48;94502.31;;;26.33;52.11
39301;BME280;25019;42.626;23.380;2023-08-17T08:50:19;94493.59;;;26.27;51.73
39301;BME280;25019;42.626;23.380;2023-08-17T08:52:57;94449.22;;;25.98;51.27
39301;BME280;25019;42.626;23.380;2023-08-17T08:55:27;94490.31;;;26.50;50.99
39301;BME280;25019;42.626;23.380;2023-08-17T08:57:56;94491.03;;;26.63;51.33
39301;BME280;25019;42.626;23.380;2023-08-17T09:00:22;94485.78;;;26.70;51.32
39301;BME280;25019;42.626;23.380;2023-08-17T09:02:48;94488.25;;;26.75;51.18
39301;BME280;25019;42.626;23.380;2023-08-17T09:05:15;94476.97;;;26.89;50.59
39301;BME280;25019;42.626;23.380;2023-08-17T09:07:42;94476.34;;;26.96;50.67
39301;BME280;25019;42.626;23.380;2023-08-17T09:10:11;94476.16;;;26.89;50.01
39301;BME280;25019;42.626;23.380;2023-08-17T09:12:38;94469.50;;;27.02;51.00
39301;BME280;25019;42.626;23.380;2023-08-17T09:15:04;94468.94;;;27.13;50.12
39301;BME280;25019;42.626;23.380;2023-08-17T09:17:32;94474.56;;;27.20;49.20
39301;BME280;25019;42.626;23.380;2023-08-17T09:19:59;94469.38;;;27.31;49.71
39301;BME280;25019;42.626;23.380;2023-08-17T09:22:36;94465.31;;;27.25;47.82
39301;BME280;25019;42.626;23.380;2023-08-17T09:25:02;94392.78;;;26.84;48.13
39301;BME280;25019;42.626;23.380;2023-08-17T09:27:28;94409.09;;;27.00;47.81
39301;BME280;25019;42.626;23.380;2023-08-17T09:30:09;94457.63;;;27.46;49.02
39301;BME280;25019;42.626;23.380;2023-08-17T09:32:36;94451.13;;;27.67;48.84
39301;BME280;25019;42.626;23.380;2023-08-17T09:35:06;94448.78;;;27.85;48.20
39301;BME280;25019;42.626;23.380;2023-08-17T09:37:33;94441.53;;;27.93;45.91
39301;BME280;25019;42.626;23.380;2023-08-17T09:39:59;94398.47;;;27.47;44.11
39301;BME280;25019;42.626;23.380;2023-08-17T09:42:25;94397.06;;;27.53;43.91
39301;BME280;25019;42.626;23.380;2023-08-17T09:44:52;94442.06;;;27.83;43.63
39301;BME280;25019;42.626;23.380;2023-08-17T09:47:22;94400.94;;;27.72;43.82
39301;BME280;25019;42.626;23.380;2023-08-17T09:49:50;94429.03;;;28.11;43.63
39301;BME280;25019;42.626;23.380;2023-08-17T09:52:17;94421.06;;;28.22;42.34
39301;BME280;25019;42.626;23.380;2023-08-17T09:54:45;94352.28;;;27.74;43.05
39301;BME280;25019;42.626;23.380;2023-08-17T09:57:12;94364.75;;;27.94;42.22
39301;BME280;25019;42.626;23.380;2023-08-17T09:59:37;94418.94;;;28.35;42.55
39301;BME280;25019;42.626;23.380;2023-08-17T10:02:03;94411.75;;;28.47;41.97
39301;BME280;25019;42.626;23.380;2023-08-17T10:04:35;94420.44;;;28.52;41.75
39301;BME280;25019;42.626;23.380;2023-08-17T10:07:03;94424.97;;;28.45;41.47
39301;BME280;25019;42.626;23.380;2023-08-17T10:09:36;94358.06;;;28.11;41.18
39301;BME280;25019;42.626;23.380;2023-08-17T10:12:10;94402.69;;;28.43;41.21
39301;BME280;25019;42.626;23.380;2023-08-17T10:14:39;94417.03;;;28.36;41.99
39301;BME280;25019;42.626;23.380;2023-08-17T10:17:14;94413.84;;;28.34;42.12
39301;BME280;25019;42.626;23.380;2023-08-17T10:19:46;94405.97;;;28.29;41.91
39301;BME280;25019;42.626;23.380;2023-08-17T10:25:08;94404.47;;;28.54;41.61
39301;BME280;25019;42.626;23.380;2023-08-17T10:27:37;94415.19;;;28.44;41.02
39301;BME280;25019;42.626;23.380;2023-08-17T10:30:03;94405.38;;;28.39;39.70
39301;BME280;25019;42.626;23.380;2023-08-17T10:32:29;94404.16;;;28.36;39.62
39301;BME280;25019;42.626;23.380;2023-08-17T10:34:56;94400.22;;;28.34;40.31
39301;BME280;25019;42.626;23.380;2023-08-17T10:37:23;94409.31;;;28.41;39.91
39301;BME280;25019;42.626;23.380;2023-08-17T10:39:50;94401.78;;;28.35;39.82
39301;BME280;25019;42.626;23.380;2023-08-17T10:42:30;94399.66;;;28.48;40.56
39301;BME280;25019;42.626;23.380;2023-08-17T10:44:57;94353.72;;;28.30;40.09
39301;BME280;25019;42.626;23.380;2023-08-17T10:47:30;94398.75;;;28.63;38.44
39301;BME280;25019;42.626;23.380;2023-08-17T10:52:36;94362.41;;;28.36;38.60
39301;BME280;25019;42.626;23.380;2023-08-17T10:55:07;94390.03;;;28.54;39.25
39301;BME280;25019;42.626;23.380;2023-08-17T10:57:39;94384.38;;;28.66;39.16
39301;BME280;25019;42.626;23.380;2023-08-17T11:02:37;94383.16;;;28.87;37.89
39301;BME280;25019;42.626;23.380;2023-08-17T11:05:03;94375.50;;;28.96;38.79
39301;BME280;25019;42.626;23.380;2023-08-17T11:07:49;94388.56;;;29.07;38.14
39301;BME280;25019;42.626;23.380;2023-08-17T11:12:44;94374.34;;;28.97;39.15
39301;BME280;25019;42.626;23.380;2023-08-17T11:15:10;94374.31;;;29.21;37.79
39301;BME280;25019;42.626;23.380;2023-08-17T11:17:36;94372.78;;;29.23;38.26
39301;BME280;25019;42.626;23.380;2023-08-17T11:20:03;94308.91;;;28.81;38.52
39301;BME280;25019;42.626;23.380;2023-08-17T11:22:29;94369.88;;;29.12;37.80
39301;BME280;25019;42.626;23.380;2023-08-17T11:24:55;94372.03;;;29.26;37.93
39301;BME280;25019;42.626;23.380;2023-08-17T11:27:20;94342.00;;;29.03;37.27
39301;BME280;25019;42.626;23.380;2023-08-17T11:29:46;94355.44;;;29.39;36.91
39301;BME280;25019;42.626;23.380;2023-08-17T11:32:16;94330.50;;;29.17;37.57
39301;BME280;25019;42.626;23.380;2023-08-17T11:34:41;94356.50;;;29.61;37.82
39301;BME280;25019;42.626;23.380;2023-08-17T11:37:07;94366.28;;;29.96;38.05
39301;BME280;25019;42.626;23.380;2023-08-17T11:39:34;94351.28;;;30.17;37.09
39301;BME280;25019;42.626;23.380;2023-08-17T11:42:00;94310.19;;;30.13;36.89
39301;BME280;25019;42.626;23.380;2023-08-17T11:44:26;94333.94;;;30.47;36.67
39301;BME280;25019;42.626;23.380;2023-08-17T11:46:51;94294.81;;;29.67;37.86
39301;BME280;25019;42.626;23.380;2023-08-17T11:49:17;94353.09;;;29.71;38.69
39301;BME280;25019;42.626;23.380;2023-08-17T11:51:43;94346.69;;;29.90;39.07
39301;BME280;25019;42.626;23.380;2023-08-17T11:54:08;94345.72;;;29.75;40.06
39301;BME280;25019;42.626;23.380;2023-08-17T11:56:34;94290.41;;;29.28;39.86
39301;BME280;25019;42.626;23.380;2023-08-17T11:59:11;94310.28;;;29.52;40.35
39301;BME280;25019;42.626;23.380;2023-08-17T12:01:44;94249.97;;;29.41;39.62
39301;BME280;25019;42.626;23.380;2023-08-17T12:04:09;94342.75;;;30.26;39.27
39301;BME280;25019;42.626;23.380;2023-08-17T12:06:40;94338.91;;;30.34;39.01
39301;BME280;25019;42.626;23.380;2023-08-17T12:09:08;94334.28;;;30.38;39.28
39301;BME280;25019;42.626;23.380;2023-08-17T12:11:33;94257.59;;;29.59;39.80
39301;BME280;25019;42.626;23.380;2023-08-17T12:13:59;94343.44;;;30.15;40.33
39301;BME280;25019;42.626;23.380;2023-08-17T12:16:24;94340.38;;;29.86;41.05
39301;BME280;25019;42.626;23.380;2023-08-17T12:18:51;94336.66;;;30.02;41.07
39301;BME280;25019;42.626;23.380;2023-08-17T12:21:23;94327.28;;;30.44;41.13
39301;BME280;25019;42.626;23.380;2023-08-17T12:23:49;94323.56;;;30.26;40.45
39301;BME280;25019;42.626;23.380;2023-08-17T12:26:21;94314.50;;;29.80;41.27
39301;BME280;25019;42.626;23.380;2023-08-17T12:28:47;94292.06;;;29.67;40.95
39301;BME280;25019;42.626;23.380;2023-08-17T12:31:13;94334.41;;;29.77;41.31
39301;BME280;25019;42.626;23.380;2023-08-17T12:33:38;94331.66;;;29.77;41.46
39301;BME280;25019;42.626;23.380;2023-08-17T12:36:04;94328.03;;;29.66;42.06
39301;BME280;25019;42.626;23.380;2023-08-17T12:38:30;94327.19;;;29.96;41.50
39301;BME280;25019;42.626;23.380;2023-08-17T12:40:55;94306.06;;;30.34;41.07
39301;BME280;25019;42.626;23.380;2023-08-17T12:43:21;94330.31;;;30.77;40.59
39301;BME280;25019;42.626;23.380;2023-08-17T12:45:47;94326.72;;;30.69;39.89
39301;BME280;25019;42.626;23.380;2023-08-17T12:48:12;94286.53;;;30.39;40.83
39301;BME280;25019;42.626;23.380;2023-08-17T12:50:38;94330.09;;;30.52;41.18
39301;BME280;25019;42.626;23.380;2023-08-17T12:53:03;94333.88;;;30.81;41.00
39301;BME280;25019;42.626;23.380;2023-08-17T12:55:29;94329.53;;;30.76;40.96
39301;BME280;25019;42.626;23.380;2023-08-17T12:57:55;94241.91;;;30.35;40.41
39301;BME280;25019;42.626;23.380;2023-08-17T13:00:20;94323.19;;;31.21;40.59
39301;BME280;25019;42.626;23.380;2023-08-17T13:02:46;94323.78;;;30.96;40.70